sensor_id;sensor_type;location;lat;lon;timestamp;P1;durP1;ratioP1;P2;durP2;ratioP2
58139;SDS011;53185;47.378;18.922;2023-04-25T00:00:17;1.42;;;0.93;;
58139;SDS011;53185;47.378;18.922;2023-04-25T00:02:46;1.73;;;1.17;;
58139;SDS011;53185;47.378;18.922;2023-04-25T00:05:13;4.32;;;1.08;;
58139;SDS011;53185;47.378;18.922;2023-04-25T00:07:44;1.37;;;1.08;;
58139;SDS011;53185;47.378;18.922;2023-04-25T00:10:12;4.65;;;1.08;;
58139;SDS011;53185;47.378;18.922;2023-04-25T00:12:39;2.20;;;0.90;;
58139;SDS011;53185;47.378;18.922;2023-04-25T00:15:07;2.72;;;0.82;;
58139;SDS011;53185;47.378;18.922;2023-04-25T00:17:35;3.72;;;1.20;;
58139;SDS011;53185;47.378;18.922;2023-04-25T00:20:02;1.73;;;1.05;;
58139;SDS011;53185;47.378;18.922;2023-04-25T00:22:32;2.62;;;1.00;;
58139;SDS011;53185;47.378;18.922;2023-04-25T00:25:01;2.37;;;1.05;;
58139;SDS011;53185;47.378;18.922;2023-04-25T00:27:30;0.93;;;0.82;;
58139;SDS011;53185;47.378;18.922;2023-04-25T00:29:57;1.35;;;1.02;;
58139;SDS011;53185;47.378;18.922;2023-04-25T00:32:25;1.12;;;1.02;;
58139;SDS011;53185;47.378;18.922;2023-04-25T00:34:52;3.80;;;1.40;;
58139;SDS011;53185;47.378;18.922;2023-04-25T00:37:19;1.08;;;0.90;;
58139;SDS011;53185;47.378;18.922;2023-04-25T00:39:47;1.12;;;1.00;;
58139;SDS011;53185;47.378;18.922;2023-04-25T00:42:14;1.87;;;1.25;;
58139;SDS011;53185;47.378;18.922;2023-04-25T00:44:42;3.17;;;1.48;;
58139;SDS011;53185;47.378;18.922;2023-04-25T00:47:10;2.28;;;1.62;;
58139;SDS011;53185;47.378;18.922;2023-04-25T00:49:38;6.35;;;1.90;;
58139;SDS011;53185;47.378;18.922;2023-04-25T00:52:05;5.22;;;3.22;;
58139;SDS011;53185;47.378;18.922;2023-04-25T00:54:32;2.20;;;1.67;;
58139;SDS011;53185;47.378;18.922;2023-04-25T00:57:00;4.55;;;2.30;;
58139;SDS011;53185;47.378;18.922;2023-04-25T00:59:28;2.35;;;1.87;;
58139;SDS011;53185;47.378;18.922;2023-04-25T01:01:57;2.30;;;1.80;;
58139;SDS011;53185;47.378;18.922;2023-04-25T01:04:26;3.17;;;1.92;;
58139;SDS011;53185;47.378;18.922;2023-04-25T01:06:54;3.72;;;2.40;;
58139;SDS011;53185;47.378;18.922;2023-04-25T01:09:22;2.35;;;1.70;;
58139;SDS011;53185;47.378;18.922;2023-04-25T01:11:50;4.55;;;2.17;;
58139;SDS011;53185;47.378;18.922;2023-04-25T01:14:18;4.80;;;1.90;;
58139;SDS011;53185;47.378;18.922;2023-04-25T01:16:45;3.22;;;2.12;;
58139;SDS011;53185;47.378;18.922;2023-04-25T01:19:13;2.22;;;1.58;;
58139;SDS011;53185;47.378;18.922;2023-04-25T01:21:45;4.18;;;2.25;;
58139;SDS011;53185;47.378;18.922;2023-04-25T01:24:13;10.35;;;2.05;;
58139;SDS011;53185;47.378;18.922;2023-04-25T01:26:42;2.85;;;1.67;;
58139;SDS011;53185;47.378;18.922;2023-04-25T01:29:18;2.35;;;1.58;;
58139;SDS011;53185;47.378;18.922;2023-04-25T01:31:46;3.55;;;1.85;;
58139;SDS011;53185;47.378;18.922;2023-04-25T01:34:13;2.90;;;1.85;;
58139;SDS011;53185;47.378;18.922;2023-04-25T01:36:41;2.75;;;2.08;;
58139;SDS011;53185;47.378;18.922;2023-04-25T01:39:08;3.10;;;2.00;;
58139;SDS011;53185;47.378;18.922;2023-04-25T01:41:36;2.70;;;1.83;;
58139;SDS011;53185;47.378;18.922;2023-04-25T01:44:03;2.25;;;1.77;;
58139;SDS011;53185;47.378;18.922;2023-04-25T01:46:31;2.22;;;1.70;;
58139;SDS011;53185;47.378;18.922;2023-04-25T01:48:59;2.40;;;1.83;;
58139;SDS011;53185;47.378;18.922;2023-04-25T01:51:27;3.12;;;1.92;;
58139;SDS011;53185;47.378;18.922;2023-04-25T01:53:54;3.60;;;2.33;;
58139;SDS011;53185;47.378;18.922;2023-04-25T01:56:22;6.03;;;2.20;;
58139;SDS011;53185;47.378;18.922;2023-04-25T01:58:50;2.83;;;2.12;;
58139;SDS011;53185;47.378;18.922;2023-04-25T02:01:18;3.53;;;2.10;;
58139;SDS011;53185;47.378;18.922;2023-04-25T02:03:47;2.83;;;2.20;;
58139;SDS011;53185;47.378;18.922;2023-04-25T02:06:16;4.10;;;2.33;;
58139;SDS011;53185;47.378;18.922;2023-04-25T02:08:44;3.28;;;2.00;;
58139;SDS011;53185;47.378;18.922;2023-04-25T02:11:12;3.47;;;1.95;;
58139;SDS011;53185;47.378;18.922;2023-04-25T02:13:39;6.15;;;2.20;;
58139;SDS011;53185;47.378;18.922;2023-04-25T02:16:07;2.83;;;2.17;;
58139;SDS011;53185;47.378;18.922;2023-04-25T02:18:37;2.55;;;1.80;;
58139;SDS011;53185;47.378;18.922;2023-04-25T02:21:05;3.10;;;2.05;;
58139;SDS011;53185;47.378;18.922;2023-04-25T02:23:33;3.58;;;2.40;;
58139;SDS011;53185;47.378;18.922;2023-04-25T02:26:00;4.25;;;1.95;;
58139;SDS011;53185;47.378;18.922;2023-04-25T02:28:28;4.62;;;2.33;;
58139;SDS011;53185;47.378;18.922;2023-04-25T02:30:56;6.22;;;3.15;;
58139;SDS011;53185;47.378;18.922;2023-04-25T02:33:23;2.55;;;1.70;;
58139;SDS011;53185;47.378;18.922;2023-04-25T02:35:50;3.20;;;2.25;;
58139;SDS011;53185;47.378;18.922;2023-04-25T02:38:21;4.65;;;2.30;;
58139;SDS011;53185;47.378;18.922;2023-04-25T02:40:48;2.83;;;2.25;;
58139;SDS011;53185;47.378;18.922;2023-04-25T02:43:17;2.87;;;2.30;;
58139;SDS011;53185;47.378;18.922;2023-04-25T02:45:44;4.55;;;2.30;;
58139;SDS011;53185;47.378;18.922;2023-04-25T02:48:12;3.92;;;2.58;;
58139;SDS011;53185;47.378;18.922;2023-04-25T02:50:39;3.40;;;2.47;;
58139;SDS011;53185;47.378;18.922;2023-04-25T02:53:06;5.37;;;2.40;;
58139;SDS011;53185;47.378;18.922;2023-04-25T02:55:34;6.80;;;2.70;;
58139;SDS011;53185;47.378;18.922;2023-04-25T02:58:02;4.75;;;2.53;;
58139;SDS011;53185;47.378;18.922;2023-04-25T03:00:31;4.12;;;2.22;;
58139;SDS011;53185;47.378;18.922;2023-04-25T03:02:58;5.25;;;2.20;;
58139;SDS011;53185;47.378;18.922;2023-04-25T03:05:26;5.70;;;2.47;;
58139;SDS011;53185;47.378;18.922;2023-04-25T03:07:53;5.32;;;2.28;;
58139;SDS011;53185;47.378;18.922;2023-04-25T03:10:20;3.00;;;2.30;;
58139;SDS011;53185;47.378;18.922;2023-04-25T03:12:48;4.50;;;2.67;;
58139;SDS011;53185;47.378;18.922;2023-04-25T03:15:16;3.03;;;2.05;;
58139;SDS011;53185;47.378;18.922;2023-04-25T03:17:43;4.82;;;1.98;;
58139;SDS011;53185;47.378;18.922;2023-04-25T03:20:10;5.10;;;2.80;;
58139;SDS011;53185;47.378;18.922;2023-04-25T03:22:38;4.30;;;2.17;;
58139;SDS011;53185;47.378;18.922;2023-04-25T03:25:06;3.33;;;2.47;;
58139;SDS011;53185;47.378;18.922;2023-04-25T03:27:34;7.75;;;2.67;;
58139;SDS011;53185;47.378;18.922;2023-04-25T03:30:02;5.15;;;2.37;;
58139;SDS011;53185;47.378;18.922;2023-04-25T03:32:29;3.50;;;2.50;;
58139;SDS011;53185;47.378;18.922;2023-04-25T03:34:56;11.43;;;2.22;;
58139;SDS011;53185;47.378;18.922;2023-04-25T03:37:24;5.85;;;2.30;;
58139;SDS011;53185;47.378;18.922;2023-04-25T03:39:51;2.58;;;2.08;;
58139;SDS011;53185;47.378;18.922;2023-04-25T03:42:20;3.15;;;1.95;;
58139;SDS011;53185;47.378;18.922;2023-04-25T03:44:51;4.90;;;3.28;;
58139;SDS011;53185;47.378;18.922;2023-04-25T03:47:19;5.32;;;2.33;;
58139;SDS011;53185;47.378;18.922;2023-04-25T03:49:47;3.72;;;2.30;;
58139;SDS011;53185;47.378;18.922;2023-04-25T03:52:18;3.37;;;2.30;;
58139;SDS011;53185;47.378;18.922;2023-04-25T03:54:46;3.72;;;2.53;;
58139;SDS011;53185;47.378;18.922;2023-04-25T03:57:13;8.27;;;3.72;;
58139;SDS011;53185;47.378;18.922;2023-04-25T03:59:41;3.28;;;2.10;;
58139;SDS011;53185;47.378;18.922;2023-04-25T04:02:09;3.53;;;2.15;;
58139;SDS011;53185;47.378;18.922;2023-04-25T04:04:38;3.50;;;2.55;;
58139;SDS011;53185;47.378;18.922;2023-04-25T04:07:06;4.57;;;2.22;;
58139;SDS011;53185;47.378;18.922;2023-04-25T04:09:33;4.65;;;2.45;;
58139;SDS011;53185;47.378;18.922;2023-04-25T04:12:02;3.40;;;2.00;;
58139;SDS011;53185;47.378;18.922;2023-04-25T04:14:30;4.55;;;2.60;;
58139;SDS011;53185;47.378;18.922;2023-04-25T04:16:57;4.35;;;3.00;;
58139;SDS011;53185;47.378;18.922;2023-04-25T04:19:25;5.03;;;2.47;;
58139;SDS011;53185;47.378;18.922;2023-04-25T04:21:54;3.65;;;1.87;;
58139;SDS011;53185;47.378;18.922;2023-04-25T04:24:22;3.60;;;2.45;;
58139;SDS011;53185;47.378;18.922;2023-04-25T04:26:50;7.05;;;2.30;;
58139;SDS011;53185;47.378;18.922;2023-04-25T04:29:18;3.78;;;2.45;;
58139;SDS011;53185;47.378;18.922;2023-04-25T04:31:48;3.72;;;2.42;;
58139;SDS011;53185;47.378;18.922;2023-04-25T04:34:17;4.22;;;2.60;;
58139;SDS011;53185;47.378;18.922;2023-04-25T04:36:45;4.37;;;2.70;;
58139;SDS011;53185;47.378;18.922;2023-04-25T04:39:14;4.90;;;3.10;;
58139;SDS011;53185;47.378;18.922;2023-04-25T04:41:42;3.50;;;2.60;;
58139;SDS011;53185;47.378;18.922;2023-04-25T04:44:10;4.97;;;2.42;;
58139;SDS011;53185;47.378;18.922;2023-04-25T04:46:37;3.75;;;2.62;;
58139;SDS011;53185;47.378;18.922;2023-04-25T04:49:10;9.20;;;3.00;;
58139;SDS011;53185;47.378;18.922;2023-04-25T04:51:38;5.78;;;2.80;;
58139;SDS011;53185;47.378;18.922;2023-04-25T04:54:06;6.00;;;2.97;;
58139;SDS011;53185;47.378;18.922;2023-04-25T04:56:34;5.40;;;2.80;;
58139;SDS011;53185;47.378;18.922;2023-04-25T04:59:02;4.82;;;3.17;;
58139;SDS011;53185;47.378;18.922;2023-04-25T05:01:29;8.30;;;3.30;;
58139;SDS011;53185;47.378;18.922;2023-04-25T05:03:57;4.20;;;2.92;;
58139;SDS011;53185;47.378;18.922;2023-04-25T05:06:30;5.05;;;3.05;;
58139;SDS011;53185;47.378;18.922;2023-04-25T05:09:00;6.07;;;3.47;;
58139;SDS011;53185;47.378;18.922;2023-04-25T05:11:28;8.30;;;3.47;;
58139;SDS011;53185;47.378;18.922;2023-04-25T05:13:55;6.28;;;3.15;;
58139;SDS011;53185;47.378;18.922;2023-04-25T05:16:24;5.45;;;3.47;;
58139;SDS011;53185;47.378;18.922;2023-04-25T05:18:51;5.90;;;4.32;;
58139;SDS011;53185;47.378;18.922;2023-04-25T05:21:19;5.35;;;3.60;;
58139;SDS011;53185;47.378;18.922;2023-04-25T05:23:47;4.97;;;3.35;;
58139;SDS011;53185;47.378;18.922;2023-04-25T05:26:16;5.05;;;3.25;;
58139;SDS011;53185;47.378;18.922;2023-04-25T05:28:44;16.45;;;3.85;;
58139;SDS011;53185;47.378;18.922;2023-04-25T05:31:12;11.77;;;3.97;;
58139;SDS011;53185;47.378;18.922;2023-04-25T05:33:40;6.50;;;3.95;;
58139;SDS011;53185;47.378;18.922;2023-04-25T05:36:07;7.03;;;4.10;;
58139;SDS011;53185;47.378;18.922;2023-04-25T05:38:35;6.35;;;3.60;;
58139;SDS011;53185;47.378;18.922;2023-04-25T05:41:04;6.22;;;3.50;;
58139;SDS011;53185;47.378;18.922;2023-04-25T05:43:31;11.63;;;4.32;;
58139;SDS011;53185;47.378;18.922;2023-04-25T05:45:59;6.55;;;3.92;;
58139;SDS011;53185;47.378;18.922;2023-04-25T05:48:26;6.47;;;4.32;;
58139;SDS011;53185;47.378;18.922;2023-04-25T05:50:54;7.70;;;4.47;;
58139;SDS011;53185;47.378;18.922;2023-04-25T05:53:21;6.20;;;3.92;;
58139;SDS011;53185;47.378;18.922;2023-04-25T05:55:50;5.20;;;3.53;;
58139;SDS011;53185;47.378;18.922;2023-04-25T05:58:17;7.78;;;4.07;;
58139;SDS011;53185;47.378;18.922;2023-04-25T06:00:45;5.37;;;3.42;;
58139;SDS011;53185;47.378;18.922;2023-04-25T06:03:13;6.53;;;3.90;;
58139;SDS011;53185;47.378;18.922;2023-04-25T06:05:47;4.95;;;3.35;;
58139;SDS011;53185;47.378;18.922;2023-04-25T06:08:15;5.15;;;3.47;;
58139;SDS011;53185;47.378;18.922;2023-04-25T06:10:42;6.95;;;4.03;;
58139;SDS011;53185;47.378;18.922;2023-04-25T06:13:10;5.05;;;3.62;;
58139;SDS011;53185;47.378;18.922;2023-04-25T06:15:37;4.47;;;3.40;;
58139;SDS011;53185;47.378;18.922;2023-04-25T06:18:04;5.32;;;3.30;;
58139;SDS011;53185;47.378;18.922;2023-04-25T06:20:33;6.22;;;3.45;;
58139;SDS011;53185;47.378;18.922;2023-04-25T06:23:01;8.70;;;3.50;;
58139;SDS011;53185;47.378;18.922;2023-04-25T06:25:29;12.68;;;3.85;;
58139;SDS011;53185;47.378;18.922;2023-04-25T06:27:56;6.60;;;3.17;;
58139;SDS011;53185;47.378;18.922;2023-04-25T06:30:24;6.45;;;3.30;;
58139;SDS011;53185;47.378;18.922;2023-04-25T06:32:53;5.25;;;3.80;;
58139;SDS011;53185;47.378;18.922;2023-04-25T06:35:21;5.97;;;4.00;;
58139;SDS011;53185;47.378;18.922;2023-04-25T06:37:49;4.12;;;3.00;;
58139;SDS011;53185;47.378;18.922;2023-04-25T06:40:20;7.95;;;3.17;;
58139;SDS011;53185;47.378;18.922;2023-04-25T06:42:48;5.37;;;3.40;;
58139;SDS011;53185;47.378;18.922;2023-04-25T06:45:16;5.45;;;3.47;;
58139;SDS011;53185;47.378;18.922;2023-04-25T06:47:43;5.28;;;3.30;;
58139;SDS011;53185;47.378;18.922;2023-04-25T06:50:11;4.40;;;3.10;;
58139;SDS011;53185;47.378;18.922;2023-04-25T06:52:39;7.57;;;3.90;;
58139;SDS011;53185;47.378;18.922;2023-04-25T06:55:06;4.95;;;2.95;;
58139;SDS011;53185;47.378;18.922;2023-04-25T06:57:34;3.50;;;2.80;;
58139;SDS011;53185;47.378;18.922;2023-04-25T07:00:04;9.77;;;3.72;;
58139;SDS011;53185;47.378;18.922;2023-04-25T07:02:36;5.05;;;3.00;;
58139;SDS011;53185;47.378;18.922;2023-04-25T07:05:04;3.92;;;2.58;;
58139;SDS011;53185;47.378;18.922;2023-04-25T07:07:32;5.35;;;3.47;;
58139;SDS011;53185;47.378;18.922;2023-04-25T07:09:59;4.70;;;2.30;;
58139;SDS011;53185;47.378;18.922;2023-04-25T07:12:27;3.92;;;2.85;;
58139;SDS011;53185;47.378;18.922;2023-04-25T07:14:54;4.12;;;2.92;;
58139;SDS011;53185;47.378;18.922;2023-04-25T07:17:25;9.02;;;3.53;;
58139;SDS011;53185;47.378;18.922;2023-04-25T07:19:53;4.57;;;2.95;;
58139;SDS011;53185;47.378;18.922;2023-04-25T07:22:20;4.18;;;2.75;;
58139;SDS011;53185;47.378;18.922;2023-04-25T07:24:48;4.68;;;3.35;;
58139;SDS011;53185;47.378;18.922;2023-04-25T07:27:17;4.22;;;2.72;;
58139;SDS011;53185;47.378;18.922;2023-04-25T07:29:45;5.28;;;2.95;;
58139;SDS011;53185;47.378;18.922;2023-04-25T07:32:12;5.95;;;2.40;;
58139;SDS011;53185;47.378;18.922;2023-04-25T07:34:42;3.28;;;2.28;;
58139;SDS011;53185;47.378;18.922;2023-04-25T07:37:09;4.90;;;2.95;;
58139;SDS011;53185;47.378;18.922;2023-04-25T07:39:37;3.22;;;2.58;;
58139;SDS011;53185;47.378;18.922;2023-04-25T07:42:05;5.40;;;2.72;;
58139;SDS011;53185;47.378;18.922;2023-04-25T07:44:36;3.90;;;2.58;;
58139;SDS011;53185;47.378;18.922;2023-04-25T07:47:08;6.75;;;2.80;;
58139;SDS011;53185;47.378;18.922;2023-04-25T07:49:36;3.20;;;2.53;;
58139;SDS011;53185;47.378;18.922;2023-04-25T07:52:04;8.30;;;3.90;;
58139;SDS011;53185;47.378;18.922;2023-04-25T07:54:36;6.28;;;2.85;;
58139;SDS011;53185;47.378;18.922;2023-04-25T07:57:04;4.35;;;2.80;;
58139;SDS011;53185;47.378;18.922;2023-04-25T07:59:37;4.35;;;3.10;;
58139;SDS011;53185;47.378;18.922;2023-04-25T08:02:05;4.25;;;3.05;;
58139;SDS011;53185;47.378;18.922;2023-04-25T08:04:40;3.80;;;2.80;;
58139;SDS011;53185;47.378;18.922;2023-04-25T08:07:08;4.43;;;3.17;;
58139;SDS011;53185;47.378;18.922;2023-04-25T08:09:38;7.55;;;4.85;;
58139;SDS011;53185;47.378;18.922;2023-04-25T08:12:06;7.82;;;4.68;;
58139;SDS011;53185;47.378;18.922;2023-04-25T08:14:33;11.55;;;4.57;;
58139;SDS011;53185;47.378;18.922;2023-04-25T08:17:04;15.60;;;8.85;;
58139;SDS011;53185;47.378;18.922;2023-04-25T08:19:33;12.05;;;7.12;;
58139;SDS011;53185;47.378;18.922;2023-04-25T08:22:00;11.85;;;6.18;;
58139;SDS011;53185;47.378;18.922;2023-04-25T08:24:28;8.23;;;4.47;;
58139;SDS011;53185;47.378;18.922;2023-04-25T08:26:57;17.83;;;8.00;;
58139;SDS011;53185;47.378;18.922;2023-04-25T08:29:26;8.35;;;4.37;;
58139;SDS011;53185;47.378;18.922;2023-04-25T08:31:55;10.35;;;6.78;;
58139;SDS011;53185;47.378;18.922;2023-04-25T08:34:25;14.25;;;6.78;;
58139;SDS011;53185;47.378;18.922;2023-04-25T08:36:53;11.00;;;7.32;;
58139;SDS011;53185;47.378;18.922;2023-04-25T08:39:21;6.97;;;4.12;;
58139;SDS011;53185;47.378;18.922;2023-04-25T08:41:50;6.93;;;4.47;;
58139;SDS011;53185;47.378;18.922;2023-04-25T08:44:17;6.85;;;4.40;;
58139;SDS011;53185;47.378;18.922;2023-04-25T08:46:46;12.05;;;5.32;;
58139;SDS011;53185;47.378;18.922;2023-04-25T08:49:19;6.37;;;4.28;;
58139;SDS011;53185;47.378;18.922;2023-04-25T08:51:47;10.52;;;4.90;;
58139;SDS011;53185;47.378;18.922;2023-04-25T08:54:17;6.53;;;3.05;;
58139;SDS011;53185;47.378;18.922;2023-04-25T08:57:02;9.38;;;3.70;;
58139;SDS011;53185;47.378;18.922;2023-04-25T08:59:31;4.43;;;3.03;;
58139;SDS011;53185;47.378;18.922;2023-04-25T09:02:00;6.05;;;3.53;;
58139;SDS011;53185;47.378;18.922;2023-04-25T09:04:32;7.20;;;4.37;;
58139;SDS011;53185;47.378;18.922;2023-04-25T09:06:59;6.28;;;3.55;;
58139;SDS011;53185;47.378;18.922;2023-04-25T09:09:27;6.45;;;4.47;;
58139;SDS011;53185;47.378;18.922;2023-04-25T09:11:55;5.53;;;3.25;;
58139;SDS011;53185;47.378;18.922;2023-04-25T09:14:23;5.47;;;3.50;;
58139;SDS011;53185;47.378;18.922;2023-04-25T09:16:57;5.80;;;3.57;;
58139;SDS011;53185;47.378;18.922;2023-04-25T09:19:34;3.83;;;2.87;;
58139;SDS011;53185;47.378;18.922;2023-04-25T09:22:09;4.57;;;3.20;;
58139;SDS011;53185;47.378;18.922;2023-04-25T09:24:38;4.90;;;3.08;;
58139;SDS011;53185;47.378;18.922;2023-04-25T09:27:11;8.73;;;2.90;;
58139;SDS011;53185;47.378;18.922;2023-04-25T09:29:46;6.37;;;2.92;;
58139;SDS011;53185;47.378;18.922;2023-04-25T09:34:44;2.55;;;2.30;;
58139;SDS011;53185;47.378;18.922;2023-04-25T09:39:55;5.53;;;2.70;;
58139;SDS011;53185;47.378;18.922;2023-04-25T09:42:27;3.12;;;2.50;;
58139;SDS011;53185;47.378;18.922;2023-04-25T09:44:56;4.47;;;2.35;;
58139;SDS011;53185;47.378;18.922;2023-04-25T09:47:25;3.78;;;2.58;;
58139;SDS011;53185;47.378;18.922;2023-04-25T09:49:54;7.25;;;2.72;;
58139;SDS011;53185;47.378;18.922;2023-04-25T09:52:22;5.07;;;3.25;;
58139;SDS011;53185;47.378;18.922;2023-04-25T09:54:52;3.65;;;2.65;;
58139;SDS011;53185;47.378;18.922;2023-04-25T09:57:23;8.40;;;3.10;;
58139;SDS011;53185;47.378;18.922;2023-04-25T09:59:53;4.93;;;3.17;;
58139;SDS011;53185;47.378;18.922;2023-04-25T10:02:25;8.80;;;4.97;;
58139;SDS011;53185;47.378;18.922;2023-04-25T10:04:55;5.53;;;3.00;;
58139;SDS011;53185;47.378;18.922;2023-04-25T10:07:25;3.33;;;2.60;;
58139;SDS011;53185;47.378;18.922;2023-04-25T10:09:59;2.85;;;2.25;;
58139;SDS011;53185;47.378;18.922;2023-04-25T10:12:30;4.25;;;2.72;;
58139;SDS011;53185;47.378;18.922;2023-04-25T10:15:01;6.65;;;3.33;;
58139;SDS011;53185;47.378;18.922;2023-04-25T10:17:29;3.50;;;2.78;;
58139;SDS011;53185;47.378;18.922;2023-04-25T10:19:58;7.93;;;3.90;;
58139;SDS011;53185;47.378;18.922;2023-04-25T10:22:38;3.30;;;2.00;;
58139;SDS011;53185;47.378;18.922;2023-04-25T10:25:08;3.70;;;1.80;;
58139;SDS011;53185;47.378;18.922;2023-04-25T10:27:36;2.87;;;1.48;;
58139;SDS011;53185;47.378;18.922;2023-04-25T10:30:08;2.10;;;1.50;;
58139;SDS011;53185;47.378;18.922;2023-04-25T10:38:41;4.70;;;3.00;;
58139;SDS011;53185;47.378;18.922;2023-04-25T10:41:09;4.07;;;2.22;;
58139;SDS011;53185;47.378;18.922;2023-04-25T10:43:39;2.40;;;1.65;;
58139;SDS011;53185;47.378;18.922;2023-04-25T10:51:26;6.50;;;3.10;;
58139;SDS011;53185;47.378;18.922;2023-04-25T10:53:59;2.30;;;1.40;;
58139;SDS011;53185;47.378;18.922;2023-04-25T10:59:15;1.00;;;0.90;;
58139;SDS011;53185;47.378;18.922;2023-04-25T11:01:47;1.50;;;0.70;;
58139;SDS011;53185;47.378;18.922;2023-04-25T11:04:24;1.52;;;1.23;;
58139;SDS011;53185;47.378;18.922;2023-04-25T11:10:05;1.17;;;0.82;;
58139;SDS011;53185;47.378;18.922;2023-04-25T11:12:33;16.50;;;2.60;;
58139;SDS011;53185;47.378;18.922;2023-04-25T11:15:01;1.10;;;0.88;;
58139;SDS011;53185;47.378;18.922;2023-04-25T11:17:30;1.60;;;1.27;;
58139;SDS011;53185;47.378;18.922;2023-04-25T11:19:58;2.50;;;0.85;;
58139;SDS011;53185;47.378;18.922;2023-04-25T11:22:27;1.42;;;0.80;;
58139;SDS011;53185;47.378;18.922;2023-04-25T11:24:54;4.20;;;2.33;;
58139;SDS011;53185;47.378;18.922;2023-04-25T11:27:22;2.22;;;1.30;;
58139;SDS011;53185;47.378;18.922;2023-04-25T11:29:51;2.72;;;1.80;;
58139;SDS011;53185;47.378;18.922;2023-04-25T11:32:18;1.80;;;1.00;;
58139;SDS011;53185;47.378;18.922;2023-04-25T11:34:47;2.83;;;1.35;;
58139;SDS011;53185;47.378;18.922;2023-04-25T11:37:15;5.30;;;1.92;;
58139;SDS011;53185;47.378;18.922;2023-04-25T11:39:43;7.05;;;2.70;;
58139;SDS011;53185;47.378;18.922;2023-04-25T11:42:12;1.70;;;1.00;;
58139;SDS011;53185;47.378;18.922;2023-04-25T11:44:40;4.85;;;1.80;;
58139;SDS011;53185;47.378;18.922;2023-04-25T11:47:08;2.33;;;1.10;;
58139;SDS011;53185;47.378;18.922;2023-04-25T11:49:35;11.23;;;6.10;;
58139;SDS011;53185;47.378;18.922;2023-04-25T11:52:03;2.40;;;1.35;;
58139;SDS011;53185;47.378;18.922;2023-04-25T11:54:37;2.10;;;1.40;;
58139;SDS011;53185;47.378;18.922;2023-04-25T11:57:05;4.32;;;2.00;;
58139;SDS011;53185;47.378;18.922;2023-04-25T11:59:32;1.98;;;1.33;;
58139;SDS011;53185;47.378;18.922;2023-04-25T12:01:59;2.62;;;1.20;;
58139;SDS011;53185;47.378;18.922;2023-04-25T12:04:29;1.20;;;1.10;;
58139;SDS011;53185;47.378;18.922;2023-04-25T12:06:58;4.53;;;2.45;;
58139;SDS011;53185;47.378;18.922;2023-04-25T12:09:28;1.33;;;1.20;;
58139;SDS011;53185;47.378;18.922;2023-04-25T12:11:57;0.98;;;0.88;;
58139;SDS011;53185;47.378;18.922;2023-04-25T12:14:26;2.85;;;1.65;;
58139;SDS011;53185;47.378;18.922;2023-04-25T12:16:55;2.08;;;1.23;;
58139;SDS011;53185;47.378;18.922;2023-04-25T12:19:34;2.50;;;1.30;;
58139;SDS011;53185;47.378;18.922;2023-04-25T12:22:02;1.17;;;1.00;;
58139;SDS011;53185;47.378;18.922;2023-04-25T12:24:32;1.85;;;1.30;;
58139;SDS011;53185;47.378;18.922;2023-04-25T12:27:04;1.40;;;1.10;;
58139;SDS011;53185;47.378;18.922;2023-04-25T12:29:35;2.45;;;1.35;;
58139;SDS011;53185;47.378;18.922;2023-04-25T12:32:05;1.33;;;1.10;;
58139;SDS011;53185;47.378;18.922;2023-04-25T12:34:33;2.28;;;1.30;;
58139;SDS011;53185;47.378;18.922;2023-04-25T12:37:03;3.05;;;1.42;;
58139;SDS011;53185;47.378;18.922;2023-04-25T12:39:30;3.35;;;1.77;;
58139;SDS011;53185;47.378;18.922;2023-04-25T12:41:58;4.80;;;1.70;;
58139;SDS011;53185;47.378;18.922;2023-04-25T12:44:27;5.93;;;1.60;;
58139;SDS011;53185;47.378;18.922;2023-04-25T12:46:54;4.03;;;2.10;;
58139;SDS011;53185;47.378;18.922;2023-04-25T12:49:22;4.10;;;2.28;;
58139;SDS011;53185;47.378;18.922;2023-04-25T12:51:49;3.80;;;1.67;;
58139;SDS011;53185;47.378;18.922;2023-04-25T12:54:18;7.03;;;3.97;;
58139;SDS011;53185;47.378;18.922;2023-04-25T12:56:45;1.33;;;1.12;;
58139;SDS011;53185;47.378;18.922;2023-04-25T12:59:13;3.53;;;2.33;;
58139;SDS011;53185;47.378;18.922;2023-04-25T13:01:41;5.37;;;2.00;;
58139;SDS011;53185;47.378;18.922;2023-04-25T13:04:08;2.95;;;1.80;;
58139;SDS011;53185;47.378;18.922;2023-04-25T13:06:39;3.20;;;2.03;;
58139;SDS011;53185;47.378;18.922;2023-04-25T13:09:06;5.50;;;3.85;;
58139;SDS011;53185;47.378;18.922;2023-04-25T13:11:34;3.95;;;1.45;;
58139;SDS011;53185;47.378;18.922;2023-04-25T13:14:02;4.18;;;1.87;;
58139;SDS011;53185;47.378;18.922;2023-04-25T13:16:30;1.55;;;1.30;;
58139;SDS011;53185;47.378;18.922;2023-04-25T13:18:57;3.25;;;1.98;;
58139;SDS011;53185;47.378;18.922;2023-04-25T13:21:25;3.03;;;1.48;;
58139;SDS011;53185;47.378;18.922;2023-04-25T13:23:53;3.12;;;1.87;;
58139;SDS011;53185;47.378;18.922;2023-04-25T13:26:21;2.35;;;1.50;;
58139;SDS011;53185;47.378;18.922;2023-04-25T13:28:48;2.12;;;1.50;;
58139;SDS011;53185;47.378;18.922;2023-04-25T13:31:16;4.50;;;2.10;;
58139;SDS011;53185;47.378;18.922;2023-04-25T13:33:43;3.22;;;2.05;;
58139;SDS011;53185;47.378;18.922;2023-04-25T13:36:11;5.50;;;3.10;;
58139;SDS011;53185;47.378;18.922;2023-04-25T13:38:38;5.15;;;4.05;;
58139;SDS011;53185;47.378;18.922;2023-04-25T13:41:06;3.03;;;1.98;;
58139;SDS011;53185;47.378;18.922;2023-04-25T13:43:34;5.47;;;3.45;;
58139;SDS011;53185;47.378;18.922;2023-04-25T13:46:02;2.47;;;1.60;;
58139;SDS011;53185;47.378;18.922;2023-04-25T13:48:29;5.25;;;1.95;;
58139;SDS011;53185;47.378;18.922;2023-04-25T13:50:57;3.40;;;2.20;;
58139;SDS011;53185;47.378;18.922;2023-04-25T13:53:24;2.55;;;1.80;;
58139;SDS011;53185;47.378;18.922;2023-04-25T13:55:52;2.22;;;1.52;;
58139;SDS011;53185;47.378;18.922;2023-04-25T13:58:20;2.50;;;1.77;;
58139;SDS011;53185;47.378;18.922;2023-04-25T14:00:47;2.95;;;2.08;;
58139;SDS011;53185;47.378;18.922;2023-04-25T14:03:16;4.80;;;3.22;;
58139;SDS011;53185;47.378;18.922;2023-04-25T14:05:44;5.25;;;1.80;;
58139;SDS011;53185;47.378;18.922;2023-04-25T14:08:11;6.82;;;3.92;;
58139;SDS011;53185;47.378;18.922;2023-04-25T14:10:39;5.65;;;2.92;;
58139;SDS011;53185;47.378;18.922;2023-04-25T14:13:06;9.40;;;2.65;;
58139;SDS011;53185;47.378;18.922;2023-04-25T14:15:36;5.60;;;2.20;;
58139;SDS011;53185;47.378;18.922;2023-04-25T14:18:04;2.15;;;1.48;;
58139;SDS011;53185;47.378;18.922;2023-04-25T14:20:32;3.92;;;1.77;;
58139;SDS011;53185;47.378;18.922;2023-04-25T14:23:00;3.20;;;2.60;;
58139;SDS011;53185;47.378;18.922;2023-04-25T14:25:27;21.15;;;2.85;;
58139;SDS011;53185;47.378;18.922;2023-04-25T14:27:55;8.18;;;4.90;;
58139;SDS011;53185;47.378;18.922;2023-04-25T14:30:22;3.15;;;1.87;;
58139;SDS011;53185;47.378;18.922;2023-04-25T14:32:50;2.83;;;2.15;;
58139;SDS011;53185;47.378;18.922;2023-04-25T14:35:17;3.95;;;1.70;;
58139;SDS011;53185;47.378;18.922;2023-04-25T14:37:45;8.80;;;2.78;;
58139;SDS011;53185;47.378;18.922;2023-04-25T14:40:12;1.77;;;1.60;;
58139;SDS011;53185;47.378;18.922;2023-04-25T14:42:42;2.90;;;2.17;;
58139;SDS011;53185;47.378;18.922;2023-04-25T14:45:09;5.28;;;2.92;;
58139;SDS011;53185;47.378;18.922;2023-04-25T14:47:37;2.87;;;2.00;;
58139;SDS011;53185;47.378;18.922;2023-04-25T14:50:05;2.67;;;1.83;;
58139;SDS011;53185;47.378;18.922;2023-04-25T14:52:34;1.87;;;1.35;;
58139;SDS011;53185;47.378;18.922;2023-04-25T14:55:02;7.95;;;1.75;;
58139;SDS011;53185;47.378;18.922;2023-04-25T14:57:34;3.25;;;1.60;;
58139;SDS011;53185;47.378;18.922;2023-04-25T15:00:02;3.28;;;2.15;;
58139;SDS011;53185;47.378;18.922;2023-04-25T15:02:32;3.87;;;2.10;;